Time;durP1;ratioP1;P1;durP2;ratioP2;P2;SDS_P1;SDS_P2;PMS_P1;PMS_P2;Temp;Humidity;BMP_temperature;BMP_pressure;BME280_temperature;BME280_humidity;BME280_pressure;Samples;Min_cycle;Max_cycle;Signal;HPM_P1;HPM_P2
2022/02/07 00:01:09;;;;;;;24.25;13.82;;;;;;;;;;5020876;28;20041;-67
2022/02/07 00:06:05;;;;;;;26.90;13.05;;;;;;;;;;5020019;28;20034;-68
2022/02/07 00:08:33;;;;;;;24.85;14.43;;;;;;;;;;5018787;28;20026;-67
2022/02/07 00:10:59;;;;;;;24.42;13.88;;;;;;;;;;5018687;28;20082;-68
2022/02/07 00:13:26;;;;;;;25.75;14.23;;;;;;;;;;5018606;28;20128;-68
2022/02/07 00:15:52;;;;;;;29.38;15.38;;;;;;;;;;5018695;28;20398;-68
2022/02/07 00:18:18;;;;;;;24.88;13.50;;;;;;;;;;5018682;28;20470;-67
2022/02/07 00:20:44;;;;;;;23.95;12.88;;;;;;;;;;5018655;28;20026;-67
2022/02/07 00:23:10;;;;;;;28.02;13.55;;;;;;;;;;5019813;28;20026;-67
2022/02/07 00:25:36;;;;;;;24.35;13.07;;;;;;;;;;5018623;28;20044;-68
2022/02/07 00:28:03;;;;;;;23.20;13.55;;;;;;;;;;5018550;28;20034;-67
2022/02/07 00:30:29;;;;;;;23.77;14.45;;;;;;;;;;5019858;28;20018;-67
2022/02/07 00:32:55;;;;;;;25.10;14.65;;;;;;;;;;5019738;28;20398;-67
2022/02/07 00:35:23;;;;;;;21.98;12.27;;;;;;;;;;5018459;28;20088;-68
2022/02/07 00:37:51;;;;;;;22.27;12.27;;;;;;;;;;5018507;28;20026;-67
2022/02/07 00:42:53;;;;;;;23.25;13.20;;;;;;;;;;5019783;28;20057;-68
2022/02/07 00:48:01;;;;;;;25.08;13.45;;;;;;;;;;5019764;28;20446;-68
2022/02/07 00:50:31;;;;;;;23.65;13.23;;;;;;;;;;5019555;28;20029;-67
2022/02/07 00:52:58;;;;;;;25.60;14.35;;;;;;;;;;5018300;28;20053;-68
2022/02/07 00:55:24;;;;;;;27.50;13.60;;;;;;;;;;5019557;28;20455;-68
2022/02/07 00:57:50;;;;;;;21.35;13.05;;;;;;;;;;5018292;28;20368;-68
2022/02/07 01:00:17;;;;;;;23.85;12.82;;;;;;;;;;5018958;28;20030;-68
2022/02/07 01:02:43;;;;;;;22.38;13.70;;;;;;;;;;5014291;28;20075;-67
2022/02/07 01:05:10;;;;;;;23.13;13.48;;;;;;;;;;5016507;28;20475;-67
2022/02/07 01:07:36;;;;;;;24.38;13.95;;;;;;;;;;5015240;28;20077;-68
2022/02/07 01:10:03;;;;;;;25.55;13.88;;;;;;;;;;5015078;28;20037;-66
2022/02/07 01:15:09;;;;;;;23.92;13.90;;;;;;;;;;5016516;28;20034;-68
2022/02/07 01:50:30;;;;;;;21.98;10.82;;;;;;;;;;5015615;28;20360;-67
2022/02/07 01:55:38;;;;;;;19.90;10.00;;;;;;;;;;5015527;28;20025;-67
2022/02/07 01:58:04;;;;;;;17.98;10.93;;;;;;;;;;5015986;28;20030;-68
2022/02/07 02:00:31;;;;;;;22.95;11.13;;;;;;;;;;5014142;28;20105;-68
2022/02/07 02:02:57;;;;;;;21.52;11.32;;;;;;;;;;5013848;28;20053;-67
2022/02/07 02:05:23;;;;;;;20.40;10.15;;;;;;;;;;5014029;28;20022;-67
2022/02/07 02:07:50;;;;;;;31.23;12.32;;;;;;;;;;5015238;28;20026;-68
2022/02/07 02:10:17;;;;;;;27.55;12.63;;;;;;;;;;5013932;28;20030;-67
2022/02/07 02:13:00;;;;;;;24.75;10.73;;;;;;;;;;5014971;28;20041;-68
2022/02/07 02:15:52;;;;;;;21.92;11.05;;;;;;;;;;5013951;28;20108;-65
2022/02/07 02:21:59;;;;;;;17.02;9.10;;;;;;;;;;5015281;28;20037;-67
2022/02/07 02:37:44;;;;;;;36.08;13.65;;;;;;;;;;5014714;28;20029;-67
2022/02/07 02:47:55;;;;;;;21.60;9.82;;;;;;;;;;5014828;28;20034;-67
2022/02/07 02:50:30;;;;;;;23.17;10.30;;;;;;;;;;5013379;28;20026;-68
2022/02/07 02:52:57;;;;;;;22.38;11.63;;;;;;;;;;5013095;28;20494;-68
2022/02/07 02:55:23;;;;;;;21.17;10.15;;;;;;;;;;5013116;28;20057;-68
2022/02/07 02:57:49;;;;;;;18.92;9.63;;;;;;;;;;5013045;28;20372;-67
2022/02/07 03:00:16;;;;;;;33.92;12.57;;;;;;;;;;5012994;28;20128;-68
2022/02/07 03:02:42;;;;;;;41.22;15.10;;;;;;;;;;5014394;28;20101;-67
2022/02/07 03:05:08;;;;;;;20.70;9.30;;;;;;;;;;5013028;28;20030;-67
2022/02/07 03:07:36;;;;;;;18.77;8.02;;;;;;;;;;5014415;28;20041;-68
2022/02/07 03:10:03;;;;;;;30.67;10.73;;;;;;;;;;5014089;28;20136;-67
2022/02/07 03:12:33;;;;;;;29.67;12.43;;;;;;;;;;5012701;28;20061;-68
2022/02/07 03:16:37;;;;;;;57.92;20.55;;;;;;;;;;5012746;28;20438;-67
2022/02/07 03:17:45;;;;;;;34.60;15.27;;;;;;;;;;5013960;28;20026;-68
2022/02/07 03:20:11;;;;;;;23.63;9.38;;;;;;;;;;5014022;28;20053;-67
2022/02/07 03:22:37;;;;;;;18.83;8.82;;;;;;;;;;5012682;28;20022;-67
2022/02/07 03:25:03;;;;;;;12.80;7.63;;;;;;;;;;5011955;28;20471;-67
2022/02/07 03:27:30;;;;;;;17.70;8.25;;;;;;;;;;5013854;28;20072;-67
2022/02/07 03:29:56;;;;;;;21.23;10.55;;;;;;;;;;5012555;28;20084;-68
2022/02/07 03:32:22;;;;;;;20.98;9.20;;;;;;;;;;5012531;28;20025;-67
2022/02/07 03:34:48;;;;;;;13.73;6.95;;;;;;;;;;5014243;28;20045;-68
2022/02/07 03:37:14;;;;;;;11.93;6.60;;;;;;;;;;5012490;28;20069;-68
2022/02/07 03:39:40;;;;;;;11.35;6.68;;;;;;;;;;5013792;28;20146;-68
2022/02/07 03:42:07;;;;;;;11.32;6.93;;;;;;;;;;5013745;28;20029;-68
2022/02/07 03:44:33;;;;;;;14.20;7.13;;;;;;;;;;5012420;28;20125;-68
2022/02/07 03:46:59;;;;;;;14.02;6.93;;;;;;;;;;5013636;28;20022;-67
2022/02/07 03:49:25;;;;;;;12.10;6.97;;;;;;;;;;5013613;28;20168;-68
2022/02/07 03:51:51;;;;;;;15.02;7.15;;;;;;;;;;5013676;28;20021;-68
2022/02/07 03:54:17;;;;;;;13.50;6.55;;;;;;;;;;5013532;28;20034;-67
2022/02/07 03:56:44;;;;;;;14.82;7.25;;;;;;;;;;5013577;28;20018;-68
2022/02/07 03:59:10;;;;;;;15.75;6.70;;;;;;;;;;5014105;28;20030;-68
2022/02/07 04:01:36;;;;;;;10.73;5.45;;;;;;;;;;5012253;28;20026;-68
2022/02/07 04:04:02;;;;;;;8.60;4.90;;;;;;;;;;5012106;28;20630;-68
2022/02/07 04:06:28;;;;;;;10.40;5.57;;;;;;;;;;5014037;28;20034;-66
2022/02/07 04:08:59;;;;;;;9.85;5.13;;;;;;;;;;5012195;28;20029;-68
2022/02/07 04:11:49;;;;;;;7.95;3.75;;;;;;;;;;5013026;28;20026;-67
2022/02/07 04:14:23;;;;;;;2.78;0.82;;;;;;;;;;5013487;28;20042;-68
2022/02/07 04:16:49;;;;;;;1.88;0.50;;;;;;;;;;5012139;28;20026;-68
2022/02/07 04:19:19;;;;;;;1.13;0.52;;;;;;;;;;5012160;28;20044;-68
2022/02/07 04:21:48;;;;;;;1.75;0.60;;;;;;;;;;5012068;28;20034;-68
2022/02/07 04:24:14;;;;;;;1.63;0.50;;;;;;;;;;5012023;28;20059;-67
2022/02/07 04:26:40;;;;;;;1.15;0.40;;;;;;;;;;5013340;28;20026;-68
2022/02/07 04:29:06;;;;;;;1.30;0.60;;;;;;;;;;5012017;28;20022;-67
2022/02/07 04:31:33;;;;;;;1.50;0.43;;;;;;;;;;5012083;28;20056;-68
2022/02/07 04:33:59;;;;;;;1.02;0.50;;;;;;;;;;5013095;28;20573;-68
2022/02/07 04:36:26;;;;;;;1.27;0.30;;;;;;;;;;5014514;28;20049;-69
2022/02/07 04:38:52;;;;;;;1.55;0.55;;;;;;;;;;5017453;28;20041;-68
2022/02/07 04:41:18;;;;;;;1.23;0.50;;;;;;;;;;5016354;28;20052;-68
2022/02/07 04:43:59;;;;;;;1.10;0.50;;;;;;;;;;5015584;28;20028;-68
2022/02/07 04:59:28;;;;;;;0.65;0.40;;;;;;;;;;5016841;28;20522;-67
2022/02/07 05:02:05;;;;;;;0.70;0.30;;;;;;;;;;5017027;28;20025;-68
2022/02/07 05:04:37;;;;;;;0.88;0.50;;;;;;;;;;5015013;28;20058;-66
2022/02/07 05:15:18;;;;;;;0.95;0.50;;;;;;;;;;5016543;28;20160;-67
2022/02/07 05:17:45;;;;;;;0.55;0.32;;;;;;;;;;5014957;28;20105;-68
2022/02/07 05:20:11;;;;;;;0.57;0.30;;;;;;;;;;5016377;28;20052;-67
2022/02/07 05:22:38;;;;;;;1.00;0.40;;;;;;;;;;5014871;28;20026;-67
2022/02/07 05:25:04;;;;;;;1.00;0.30;;;;;;;;;;5014788;28;20034;-67
2022/02/07 05:27:30;;;;;;;0.95;0.50;;;;;;;;;;5016007;28;20077;-68
2022/02/07 05:29:57;;;;;;;0.70;0.35;;;;;;;;;;5014779;28;20030;-66
2022/02/07 05:32:23;;;;;;;0.85;0.40;;;;;;;;;;5014613;28;20479;-68
2022/02/07 05:34:51;;;;;;;1.13;0.50;;;;;;;;;;5015818;28;20434;-68
2022/02/07 05:37:17;;;;;;;0.75;0.40;;;;;;;;;;5014546;28;20113;-68
2022/02/07 05:39:47;;;;;;;0.88;0.40;;;;;;;;;;5016006;28;20084;-66
2022/02/07 05:42:13;;;;;;;0.70;0.30;;;;;;;;;;5014696;28;20026;-66
2022/02/07 05:44:44;;;;;;;0.47;0.22;;;;;;;;;;5014388;28;20068;-68
2022/02/07 05:47:10;;;;;;;0.90;0.40;;;;;;;;;;5013783;28;20033;-67
2022/02/07 05:49:36;;;;;;;0.32;0.22;;;;;;;;;;5014283;28;20029;-67
2022/02/07 05:52:03;;;;;;;1.08;0.50;;;;;;;;;;5013370;28;20092;-64
2022/02/07 05:54:29;;;;;;;1.63;0.50;;;;;;;;;;5017956;28;20123;-65
2022/02/07 05:56:55;;;;;;;0.90;0.43;;;;;;;;;;5013544;28;20078;-64
2022/02/07 05:59:21;;;;;;;1.77;0.40;;;;;;;;;;5014900;28;20025;-65
2022/02/07 06:01:47;;;;;;;0.75;0.30;;;;;;;;;;5013921;28;20410;-64
2022/02/07 06:04:13;;;;;;;0.80;0.40;;;;;;;;;;5013455;28;20124;-64
2022/02/07 06:06:41;;;;;;;2.58;0.65;;;;;;;;;;5015063;28;20026;-65
2022/02/07 06:09:07;;;;;;;1.17;0.40;;;;;;;;;;5015319;28;20486;-65
2022/02/07 06:11:34;;;;;;;0.82;0.20;;;;;;;;;;5013576;28;20026;-65
2022/02/07 06:14:00;;;;;;;0.32;0.10;;;;;;;;;;5015395;28;20454;-65
2022/02/07 06:16:28;;;;;;;0.15;0.10;;;;;;;;;;5013586;28;20084;-64
2022/02/07 06:18:54;;;;;;;2.35;1.25;;;;;;;;;;5013607;28;20033;-65
2022/02/07 06:21:20;;;;;;;10.63;5.32;;;;;;;;;;5013593;28;20033;-65
2022/02/07 06:23:47;;;;;;;18.65;11.15;;;;;;;;;;5013599;28;20026;-65
2022/02/07 06:26:13;;;;;;;18.23;7.60;;;;;;;;;;5013511;28;20033;-65
2022/02/07 06:28:39;;;;;;;36.65;13.02;;;;;;;;;;5013411;28;20030;-64
2022/02/07 06:31:05;;;;;;;26.00;10.70;;;;;;;;;;5013434;28;20515;-65
2022/02/07 06:33:32;;;;;;;8.13;2.20;;;;;;;;;;5013409;28;20042;-65
2022/02/07 06:35:59;;;;;;;0.77;0.40;;;;;;;;;;5013417;28;20030;-65
2022/02/07 06:38:25;;;;;;;0.68;0.32;;;;;;;;;;5013160;28;20022;-65
2022/02/07 06:40:52;;;;;;;0.60;0.30;;;;;;;;;;5014498;28;20049;-65
2022/02/07 06:43:18;;;;;;;0.90;0.35;;;;;;;;;;5012921;28;20026;-65
2022/02/07 06:45:44;;;;;;;0.85;0.40;;;;;;;;;;5013178;28;20068;-65
2022/02/07 06:48:10;;;;;;;0.77;0.40;;;;;;;;;;5013140;28;20018;-64
2022/02/07 06:50:36;;;;;;;1.25;0.40;;;;;;;;;;5013028;28;20040;-64
2022/02/07 06:53:02;;;;;;;0.88;0.45;;;;;;;;;;5014511;28;20489;-64
2022/02/07 06:55:28;;;;;;;2.08;0.40;;;;;;;;;;5014536;28;20064;-64
2022/02/07 06:57:54;;;;;;;0.90;0.22;;;;;;;;;;5012854;28;20478;-65
2022/02/07 07:00:21;;;;;;;1.27;0.50;;;;;;;;;;5011911;28;20022;-65
2022/02/07 07:02:48;;;;;;;1.00;0.30;;;;;;;;;;5012510;28;20025;-65
2022/02/07 07:05:20;;;;;;;0.80;0.40;;;;;;;;;;5014451;28;20026;-65
2022/02/07 07:07:47;;;;;;;1.65;0.70;;;;;;;;;;5012819;28;20038;-65
2022/02/07 07:10:14;;;;;;;0.60;0.30;;;;;;;;;;5007732;28;20081;-65
2022/02/07 07:12:43;;;;;;;0.68;0.30;;;;;;;;;;4992275;28;20065;-65
2022/02/07 07:15:14;;;;;;;1.20;0.50;;;;;;;;;;4992553;28;20095;-65
2022/02/07 07:17:40;;;;;;;1.30;0.20;;;;;;;;;;4993110;28;20019;-65
2022/02/07 07:20:08;;;;;;;1.52;0.40;;;;;;;;;;4994433;28;20030;-65
2022/02/07 07:22:34;;;;;;;1.00;0.57;;;;;;;;;;4992987;28;20500;-65
2022/02/07 07:25:02;;;;;;;0.88;0.40;;;;;;;;;;4992846;28;20034;-65
2022/02/07 07:27:32;;;;;;;1.20;0.50;;;;;;;;;;4992943;28;20439;-65
2022/02/07 07:29:58;;;;;;;0.80;0.40;;;;;;;;;;4992854;28;20388;-65
2022/02/07 07:32:28;;;;;;;1.58;0.45;;;;;;;;;;4992779;28;20390;-65
2022/02/07 07:34:57;;;;;;;1.90;0.68;;;;;;;;;;4993985;28;20034;-65
2022/02/07 07:37:24;;;;;;;1.25;0.47;;;;;;;;;;4993840;28;20402;-65
2022/02/07 07:39:50;;;;;;;1.15;0.40;;;;;;;;;;4992855;28;20365;-65
2022/02/07 07:42:16;;;;;;;0.88;0.30;;;;;;;;;;4992751;28;20074;-64
2022/02/07 07:44:44;;;;;;;1.85;0.52;;;;;;;;;;4992735;28;20061;-64
2022/02/07 07:47:15;;;;;;;1.77;0.40;;;;;;;;;;4995428;28;20030;-65
2022/02/07 07:49:51;;;;;;;1.58;0.50;;;;;;;;;;5012368;28;20079;-65
2022/02/07 07:52:29;;;;;;;1.17;0.60;;;;;;;;;;5012179;28;20030;-65
2022/02/07 07:55:21;;;;;;;1.52;0.60;;;;;;;;;;5012145;28;20038;-65
2022/02/07 08:03:14;;;;;;;0.68;0.20;;;;;;;;;;5013661;28;20136;-66
2022/02/07 08:08:30;;;;;;;0.80;0.40;;;;;;;;;;5013425;28;20486;-65
2022/02/07 08:11:06;;;;;;;2.00;0.40;;;;;;;;;;5015397;28;20026;-66
2022/02/07 08:13:33;;;;;;;1.40;0.40;;;;;;;;;;5017309;28;20506;-66
2022/02/07 08:16:00;;;;;;;1.75;0.50;;;;;;;;;;5017460;28;20347;-66
2022/02/07 08:18:26;;;;;;;0.85;0.20;;;;;;;;;;5017411;28;20439;-66
2022/02/07 08:20:52;;;;;;;1.15;0.28;;;;;;;;;;5017179;28;20049;-66
2022/02/07 08:23:19;;;;;;;3.00;0.20;;;;;;;;;;5015910;28;20121;-65
2022/02/07 08:25:45;;;;;;;1.13;0.22;;;;;;;;;;5017081;28;20447;-66
2022/02/07 08:28:11;;;;;;;1.23;0.43;;;;;;;;;;5017085;28;20061;-66
2022/02/07 08:30:37;;;;;;;1.35;0.40;;;;;;;;;;5015555;28;20113;-66
2022/02/07 08:33:03;;;;;;;2.50;0.35;;;;;;;;;;5016744;28;20493;-66
2022/02/07 08:35:30;;;;;;;0.40;0.20;;;;;;;;;;5015690;28;20025;-66
2022/02/07 08:37:59;;;;;;;2.38;0.52;;;;;;;;;;5017062;28;20049;-65
2022/02/07 08:40:27;;;;;;;1.40;0.50;;;;;;;;;;5015463;28;20022;-66
2022/02/07 08:42:54;;;;;;;1.95;0.52;;;;;;;;;;5015228;28;20026;-65
2022/02/07 08:45:20;;;;;;;2.33;0.60;;;;;;;;;;5015428;28;20387;-65
2022/02/07 08:47:46;;;;;;;1.60;0.40;;;;;;;;;;5015347;28;20026;-66
2022/02/07 08:50:13;;;;;;;5.10;0.40;;;;;;;;;;5015340;28;20041;-66
2022/02/07 08:52:46;;;;;;;1.40;0.50;;;;;;;;;;5015094;28;20041;-66
2022/02/07 08:55:17;;;;;;;1.55;0.40;;;;;;;;;;5015347;28;20502;-65
2022/02/07 08:57:46;;;;;;;2.10;0.30;;;;;;;;;;5015317;28;20497;-65
2022/02/07 09:00:17;;;;;;;2.58;0.50;;;;;;;;;;5015210;28;20606;-66
2022/02/07 09:05:35;;;;;;;1.02;0.30;;;;;;;;;;5016396;28;20042;-66
2022/02/07 09:08:21;;;;;;;3.13;0.50;;;;;;;;;;5016445;28;20018;-66
2022/02/07 09:10:48;;;;;;;2.33;0.57;;;;;;;;;;5014986;28;20034;-66
2022/02/07 09:13:16;;;;;;;1.60;0.30;;;;;;;;;;5016459;28;20044;-65
2022/02/07 09:15:55;;;;;;;1.67;0.45;;;;;;;;;;5014939;28;20534;-65
2022/02/07 09:18:21;;;;;;;3.53;0.57;;;;;;;;;;5016187;28;20470;-73
2022/02/07 09:20:48;;;;;;;4.70;0.65;;;;;;;;;;5016184;28;20387;-73
2022/02/07 09:23:14;;;;;;;0.95;0.50;;;;;;;;;;5013673;28;20037;-73
2022/02/07 09:25:40;;;;;;;2.85;0.40;;;;;;;;;;5016015;28;20032;-75
2022/02/07 09:28:06;;;;;;;1.40;0.43;;;;;;;;;;5015734;28;20089;-74
2022/02/07 09:30:32;;;;;;;3.58;0.50;;;;;;;;;;5015890;28;20022;-70
2022/02/07 09:32:58;;;;;;;3.53;0.55;;;;;;;;;;5014366;28;20471;-73
2022/02/07 09:35:25;;;;;;;2.97;0.45;;;;;;;;;;5014535;28;20030;-74
2022/02/07 09:37:53;;;;;;;4.00;0.60;;;;;;;;;;5014512;28;20112;-71
2022/02/07 09:40:21;;;;;;;4.28;0.50;;;;;;;;;;5015612;28;20105;-71
2022/02/07 09:42:54;;;;;;;1.85;0.70;;;;;;;;;;5014450;28;20029;-73
2022/02/07 09:45:30;;;;;;;2.60;0.35;;;;;;;;;;5015754;28;20382;-72
2022/02/07 09:47:57;;;;;;;1.27;0.50;;;;;;;;;;5015644;28;20018;-72
2022/02/07 09:50:23;;;;;;;1.90;0.50;;;;;;;;;;5014176;28;20030;-75
2022/02/07 09:52:49;;;;;;;4.43;0.77;;;;;;;;;;5015336;28;20437;-71
2022/02/07 09:55:16;;;;;;;1.05;0.28;;;;;;;;;;5015518;28;20033;-69
2022/02/07 09:57:42;;;;;;;1.55;0.45;;;;;;;;;;5014012;28;20026;-68
2022/02/07 10:00:16;;;;;;;2.67;0.50;;;;;;;;;;5015365;28;20026;-69
2022/02/07 10:02:48;;;;;;;1.98;0.40;;;;;;;;;;5013783;28;20121;-73
2022/02/07 10:05:20;;;;;;;1.27;0.32;;;;;;;;;;5014056;28;20483;-69
2022/02/07 10:07:59;;;;;;;2.15;0.50;;;;;;;;;;5015243;28;20033;-72
2022/02/07 10:17:58;;;;;;;5.57;0.43;;;;;;;;;;5015246;28;20048;-68
2022/02/07 10:40:23;;;;;;;2.35;0.57;;;;;;;;;;5014995;28;20458;-70
2022/02/07 10:43:09;;;;;;;5.18;0.63;;;;;;;;;;5013353;28;20536;-70
2022/02/07 10:45:56;;;;;;;1.75;0.43;;;;;;;;;;5013333;28;20022;-73
2022/02/07 10:48:48;;;;;;;3.65;0.38;;;;;;;;;;5013145;28;20112;-73
2022/02/07 10:51:17;;;;;;;2.63;0.90;;;;;;;;;;5011379;28;20479;-68
2022/02/07 10:53:48;;;;;;;1.92;0.40;;;;;;;;;;5013051;28;20554;-73
2022/02/07 10:56:15;;;;;;;2.05;0.55;;;;;;;;;;5013087;28;20045;-71
2022/02/07 10:58:41;;;;;;;3.22;0.63;;;;;;;;;;5012744;28;20037;-70
2022/02/07 11:01:24;;;;;;;2.17;0.63;;;;;;;;;;5014110;28;20112;-70
2022/02/07 11:03:57;;;;;;;2.20;1.00;;;;;;;;;;5013226;28;20046;-72
2022/02/07 11:06:31;;;;;;;3.00;0.40;;;;;;;;;;5012939;28;20037;-72
2022/02/07 11:19:27;;;;;;;4.37;0.57;;;;;;;;;;5014088;28;20084;-70
2022/02/07 11:22:15;;;;;;;2.95;0.45;;;;;;;;;;5012612;28;20284;-72
2022/02/07 11:24:57;;;;;;;1.73;0.60;;;;;;;;;;5012653;28;20034;-72
2022/02/07 11:27:35;;;;;;;3.42;0.40;;;;;;;;;;5013117;28;20483;-72
2022/02/07 11:30:03;;;;;;;2.05;0.50;;;;;;;;;;5012550;28;20030;-75
2022/02/07 11:32:46;;;;;;;1.73;0.50;;;;;;;;;;5012488;28;20026;-74
2022/02/07 11:35:18;;;;;;;8.73;0.73;;;;;;;;;;5012594;28;20037;-73
2022/02/07 11:37:49;;;;;;;3.35;0.50;;;;;;;;;;5013788;28;20097;-73
2022/02/07 11:40:27;;;;;;;3.47;0.75;;;;;;;;;;5013824;28;20045;-68
2022/02/07 11:43:12;;;;;;;2.40;0.90;;;;;;;;;;5013677;28;20030;-73
2022/02/07 11:45:56;;;;;;;1.10;0.40;;;;;;;;;;5013401;28;20105;-72
2022/02/07 11:48:25;;;;;;;1.45;0.45;;;;;;;;;;5013514;28;20061;-70
2022/02/07 11:50:54;;;;;;;1.75;0.70;;;;;;;;;;5014019;28;20022;-69
2022/02/07 11:53:26;;;;;;;4.50;0.68;;;;;;;;;;5013451;28;20391;-69
2022/02/07 11:56:05;;;;;;;3.20;0.80;;;;;;;;;;5013576;28;20029;-70
2022/02/07 11:58:44;;;;;;;2.33;0.50;;;;;;;;;;5011959;28;20128;-70
2022/02/07 12:01:12;;;;;;;2.22;0.50;;;;;;;;;;5012302;28;20057;-72
2022/02/07 12:03:41;;;;;;;3.42;0.63;;;;;;;;;;5011694;28;20042;-72
2022/02/07 12:06:11;;;;;;;2.40;0.52;;;;;;;;;;5013625;28;20067;-74
2022/02/07 12:08:38;;;;;;;1.95;0.40;;;;;;;;;;5011980;28;20450;-71
2022/02/07 12:11:05;;;;;;;2.20;0.60;;;;;;;;;;5012072;28;20399;-73
2022/02/07 12:13:33;;;;;;;3.72;0.50;;;;;;;;;;5012092;28;20030;-74
2022/02/07 12:16:21;;;;;;;2.08;0.40;;;;;;;;;;5013363;28;20541;-73
2022/02/07 12:19:07;;;;;;;2.03;0.40;;;;;;;;;;5011959;28;20145;-72
2022/02/07 12:21:34;;;;;;;2.92;0.70;;;;;;;;;;5012123;28;20506;-73
2022/02/07 12:24:04;;;;;;;3.85;0.77;;;;;;;;;;4995825;28;20085;-73
2022/02/07 12:26:36;;;;;;;2.00;0.60;;;;;;;;;;5011958;28;20492;-70
2022/02/07 12:29:08;;;;;;;1.13;0.30;;;;;;;;;;5011766;28;20032;-73
2022/02/07 12:31:40;;;;;;;1.38;0.50;;;;;;;;;;5013256;28;20029;-73
2022/02/07 12:34:10;;;;;;;2.35;0.52;;;;;;;;;;5011885;28;20041;-72
2022/02/07 12:36:37;;;;;;;1.27;0.52;;;;;;;;;;5013221;28;20097;-73
2022/02/07 12:39:05;;;;;;;3.63;0.65;;;;;;;;;;5011918;28;20038;-72
2022/02/07 12:41:33;;;;;;;2.40;0.98;;;;;;;;;;5011927;28;20059;-73
2022/02/07 12:43:59;;;;;;;2.78;0.43;;;;;;;;;;5011884;28;20022;-73
2022/02/07 12:46:27;;;;;;;1.10;0.30;;;;;;;;;;5011706;28;20057;-74
2022/02/07 12:49:02;;;;;;;1.70;0.55;;;;;;;;;;5011966;28;20088;-70
2022/02/07 12:51:42;;;;;;;1.70;0.57;;;;;;;;;;5011858;28;20026;-72
2022/02/07 12:54:09;;;;;;;1.35;0.30;;;;;;;;;;5012952;28;20057;-73
2022/02/07 12:56:36;;;;;;;2.33;0.50;;;;;;;;;;5012918;28;20033;-73
2022/02/07 12:59:03;;;;;;;2.97;0.52;;;;;;;;;;5015360;28;20054;-72
2022/02/07 13:01:35;;;;;;;1.95;0.22;;;;;;;;;;5016505;28;20055;-71
2022/02/07 13:04:14;;;;;;;1.73;0.60;;;;;;;;;;5016294;28;20050;-73
2022/02/07 13:06:43;;;;;;;5.32;1.05;;;;;;;;;;5015089;28;20064;-69
2022/02/07 13:09:12;;;;;;;3.05;0.40;;;;;;;;;;5015081;28;20054;-69
2022/02/07 13:11:45;;;;;;;2.90;0.70;;;;;;;;;;5016314;28;20026;-74
2022/02/07 13:14:11;;;;;;;1.93;0.43;;;;;;;;;;5015014;28;20030;-70
2022/02/07 13:16:37;;;;;;;1.85;0.40;;;;;;;;;;5014861;28;20032;-69
2022/02/07 13:19:11;;;;;;;1.98;0.50;;;;;;;;;;5014921;28;20106;-70
2022/02/07 13:21:40;;;;;;;2.05;0.43;;;;;;;;;;5014595;28;20037;-69
2022/02/07 13:24:14;;;;;;;3.25;0.73;;;;;;;;;;5014765;28;20022;-70
2022/02/07 13:26:44;;;;;;;2.67;0.50;;;;;;;;;;5014762;28;20038;-71
2022/02/07 13:29:15;;;;;;;2.13;0.60;;;;;;;;;;5014743;28;20109;-71
2022/02/07 13:31:41;;;;;;;2.63;0.68;;;;;;;;;;5014769;28;20076;-69
2022/02/07 13:34:27;;;;;;;1.27;0.50;;;;;;;;;;5015955;28;20033;-69
2022/02/07 13:36:54;;;;;;;0.90;0.40;;;;;;;;;;5014471;28;20030;-68
2022/02/07 13:39:21;;;;;;;0.65;0.30;;;;;;;;;;5014555;28;20446;-69
2022/02/07 13:42:00;;;;;;;2.03;0.45;;;;;;;;;;5014501;28;20022;-69
2022/02/07 13:44:27;;;;;;;2.22;0.47;;;;;;;;;;5015625;28;20084;-69
2022/02/07 13:46:59;;;;;;;1.02;0.30;;;;;;;;;;5014410;28;20386;-69
2022/02/07 13:49:25;;;;;;;0.85;0.25;;;;;;;;;;5015441;28;20034;-69
2022/02/07 13:51:52;;;;;;;2.22;0.60;;;;;;;;;;5015496;28;20484;-68
2022/02/07 13:54:28;;;;;;;1.08;0.40;;;;;;;;;;5014140;28;20510;-69
2022/02/07 13:56:57;;;;;;;2.63;0.35;;;;;;;;;;5015523;28;20033;-69
2022/02/07 13:59:23;;;;;;;0.73;0.30;;;;;;;;;;5015445;28;20041;-69
2022/02/07 14:01:51;;;;;;;0.95;0.30;;;;;;;;;;5014177;28;20030;-68
2022/02/07 14:04:22;;;;;;;5.00;0.40;;;;;;;;;;5013607;28;20054;-70
2022/02/07 14:07:09;;;;;;;1.50;0.38;;;;;;;;;;5014018;28;20032;-69
2022/02/07 14:09:37;;;;;;;2.72;0.50;;;;;;;;;;5014681;28;20050;-69
2022/02/07 14:12:04;;;;;;;2.28;0.50;;;;;;;;;;5015231;28;20069;-68
2022/02/07 14:14:30;;;;;;;1.77;0.50;;;;;;;;;;5013535;28;20034;-72
2022/02/07 14:16:56;;;;;;;2.85;0.50;;;;;;;;;;5015519;28;20032;-72
2022/02/07 14:19:42;;;;;;;1.88;0.75;;;;;;;;;;5013987;28;20076;-71
2022/02/07 14:22:09;;;;;;;1.25;0.40;;;;;;;;;;5013896;28;20032;-69
2022/02/07 14:24:36;;;;;;;3.72;0.88;;;;;;;;;;5013622;28;20471;-70
2022/02/07 14:27:02;;;;;;;1.95;0.70;;;;;;;;;;5014873;28;20030;-71
2022/02/07 14:29:28;;;;;;;4.28;0.93;;;;;;;;;;5013625;28;20026;-68
2022/02/07 14:31:55;;;;;;;2.25;0.43;;;;;;;;;;5013419;28;20037;-68
2022/02/07 14:34:21;;;;;;;2.08;0.57;;;;;;;;;;5013341;28;20398;-68
2022/02/07 14:36:47;;;;;;;1.38;0.50;;;;;;;;;;5013472;28;20554;-68
2022/02/07 14:39:13;;;;;;;2.67;0.70;;;;;;;;;;5013352;28;20479;-68
2022/02/07 14:41:39;;;;;;;1.02;0.40;;;;;;;;;;5014752;28;20025;-69
2022/02/07 14:44:07;;;;;;;1.45;0.70;;;;;;;;;;5014799;28;20025;-68
2022/02/07 14:46:49;;;;;;;2.58;0.50;;;;;;;;;;5013166;28;20113;-68
2022/02/07 14:49:15;;;;;;;0.95;0.40;;;;;;;;;;5013253;28;20096;-68
2022/02/07 14:51:41;;;;;;;1.55;0.47;;;;;;;;;;5013188;28;20029;-69
2022/02/07 14:54:07;;;;;;;1.15;0.50;;;;;;;;;;5014361;28;20042;-69
2022/02/07 14:56:34;;;;;;;5.50;0.55;;;;;;;;;;5014311;28;20030;-69
2022/02/07 14:59:00;;;;;;;3.25;0.80;;;;;;;;;;5014775;28;20037;-70
2022/02/07 15:01:26;;;;;;;1.08;0.40;;;;;;;;;;5013038;28;20022;-68
2022/02/07 15:03:54;;;;;;;5.70;0.40;;;;;;;;;;5013753;28;20058;-68
2022/02/07 15:06:21;;;;;;;3.80;0.35;;;;;;;;;;5012887;28;20053;-69
2022/02/07 15:08:47;;;;;;;1.23;0.40;;;;;;;;;;5014146;28;20029;-68
2022/02/07 15:11:16;;;;;;;1.13;0.43;;;;;;;;;;5014476;28;20036;-70
2022/02/07 15:13:42;;;;;;;1.15;0.52;;;;;;;;;;5012443;28;20042;-69
2022/02/07 15:16:08;;;;;;;9.93;0.70;;;;;;;;;;5012832;28;20033;-69
2022/02/07 15:18:34;;;;;;;2.05;0.77;;;;;;;;;;5013936;28;20025;-68
2022/02/07 15:21:02;;;;;;;3.58;1.40;;;;;;;;;;5011892;28;20026;-69
2022/02/07 15:23:28;;;;;;;1.70;0.70;;;;;;;;;;5012697;28;20056;-73
2022/02/07 15:25:54;;;;;;;1.08;0.47;;;;;;;;;;5012568;28;20025;-72
2022/02/07 15:28:20;;;;;;;1.80;0.60;;;;;;;;;;5014082;28;20364;-70
2022/02/07 15:30:47;;;;;;;1.77;0.60;;;;;;;;;;5012597;28;20121;-72
2022/02/07 15:33:18;;;;;;;1.92;0.52;;;;;;;;;;5012445;28;20044;-69
2022/02/07 15:35:48;;;;;;;4.90;0.85;;;;;;;;;;5012547;28;20021;-71
2022/02/07 15:38:14;;;;;;;3.40;0.50;;;;;;;;;;5012316;28;20057;-68
2022/02/07 15:40:41;;;;;;;1.90;0.50;;;;;;;;;;5013653;28;20034;-70
2022/02/07 15:43:07;;;;;;;2.45;0.80;;;;;;;;;;5012390;28;20021;-69
2022/02/07 15:45:33;;;;;;;2.08;0.52;;;;;;;;;;5012428;28;20390;-74
2022/02/07 15:48:00;;;;;;;2.05;0.70;;;;;;;;;;5013555;28;20437;-73
2022/02/07 15:50:26;;;;;;;2.28;0.65;;;;;;;;;;5012212;28;20092;-70
2022/02/07 15:52:52;;;;;;;1.92;0.50;;;;;;;;;;5012252;28;20036;-73
2022/02/07 15:55:19;;;;;;;2.15;0.70;;;;;;;;;;5012254;28;20372;-68
2022/02/07 15:57:46;;;;;;;1.73;0.60;;;;;;;;;;5012143;28;20080;-68
2022/02/07 16:00:13;;;;;;;4.32;0.95;;;;;;;;;;5012349;28;20034;-70
2022/02/07 16:02:47;;;;;;;1.73;0.60;;;;;;;;;;5013389;28;20025;-73
2022/02/07 16:05:13;;;;;;;1.90;0.73;;;;;;;;;;5012290;28;20038;-70
2022/02/07 16:07:40;;;;;;;3.00;0.90;;;;;;;;;;5012146;28;20506;-72
2022/02/07 16:10:08;;;;;;;2.47;0.75;;;;;;;;;;5012232;28;20498;-76
2022/02/07 16:12:35;;;;;;;1.55;0.57;;;;;;;;;;5013331;28;20525;-74
2022/02/07 16:15:01;;;;;;;4.13;0.85;;;;;;;;;;5012054;28;20084;-74
2022/02/07 16:17:28;;;;;;;2.33;0.73;;;;;;;;;;5012038;28;20038;-75
2022/02/07 16:19:56;;;;;;;4.68;1.00;;;;;;;;;;5013184;28;20542;-69
2022/02/07 16:22:23;;;;;;;3.95;1.15;;;;;;;;;;5011834;28;20121;-73
2022/02/07 16:24:49;;;;;;;5.82;1.02;;;;;;;;;;5012117;28;20364;-73
2022/02/07 16:27:15;;;;;;;7.07;1.00;;;;;;;;;;5011367;28;20064;-73
2022/02/07 16:29:43;;;;;;;2.53;1.00;;;;;;;;;;5011962;28;20128;-73
2022/02/07 16:32:10;;;;;;;3.33;0.60;;;;;;;;;;5014288;28;20076;-73
2022/02/07 16:34:36;;;;;;;2.10;0.65;;;;;;;;;;5015781;28;20411;-73
2022/02/07 16:37:02;;;;;;;3.65;0.80;;;;;;;;;;5017011;28;20022;-74
2022/02/07 16:39:28;;;;;;;2.95;0.90;;;;;;;;;;5015777;28;20026;-74
2022/02/07 16:41:54;;;;;;;2.17;0.85;;;;;;;;;;5017006;28;20364;-74
2022/02/07 16:44:23;;;;;;;2.45;0.90;;;;;;;;;;5015728;28;20030;-74
2022/02/07 16:46:49;;;;;;;2.42;0.70;;;;;;;;;;5015691;28;20494;-74
2022/02/07 16:49:26;;;;;;;4.35;1.15;;;;;;;;;;5015588;28;20464;-73
2022/02/07 16:51:53;;;;;;;4.38;1.38;;;;;;;;;;5015613;28;20033;-74
2022/02/07 16:54:20;;;;;;;1.83;0.73;;;;;;;;;;5016667;28;20033;-74
2022/02/07 16:56:48;;;;;;;3.05;0.90;;;;;;;;;;5015413;28;20026;-74
2022/02/07 16:59:15;;;;;;;3.70;1.13;;;;;;;;;;5015417;28;20037;-73
2022/02/07 17:01:51;;;;;;;2.28;0.95;;;;;;;;;;5016667;28;20491;-74
2022/02/07 17:04:18;;;;;;;1.75;0.85;;;;;;;;;;5015682;28;20050;-72
2022/02/07 17:06:44;;;;;;;4.03;1.15;;;;;;;;;;5016487;28;20475;-73
2022/02/07 17:09:10;;;;;;;2.40;0.80;;;;;;;;;;5015244;28;20064;-74